createdAt,value
2018-09-08T00:03:49.625Z,11.21
2018-09-08T00:08:47.136Z,11.31
2018-09-08T00:13:45.198Z,11.41
2018-09-08T00:18:48.223Z,11.48
2018-09-08T00:23:51.543Z,11.48
2018-09-08T00:28:55.318Z,11.53
2018-09-08T00:33:52.694Z,11.60
2018-09-08T00:38:50.060Z,11.59
2018-09-08T00:43:47.792Z,11.68
2018-09-08T00:48:45.207Z,11.69
2018-09-08T00:53:42.614Z,11.75
2018-09-08T00:58:44.547Z,11.80
2018-09-08T01:03:42.782Z,11.69
2018-09-08T01:08:40.264Z,11.79
2018-09-08T01:13:37.638Z,11.71
2018-09-08T01:18:37.007Z,11.80
2018-09-08T01:23:34.393Z,12.04
2018-09-08T01:28:32.272Z,11.92
2018-09-08T01:33:29.756Z,12.08
2018-09-08T01:38:27.176Z,11.87
2018-09-08T01:43:24.579Z,11.80
2018-09-08T01:48:22.122Z,11.64
2018-09-08T01:53:19.534Z,11.55
2018-09-08T01:58:16.895Z,11.50
2018-09-08T02:03:14.368Z,11.22
2018-09-08T02:08:11.858Z,11.27
2018-09-08T02:13:09.410Z,11.18
2018-09-08T02:18:06.824Z,11.06
2018-09-08T02:23:04.235Z,11.16
2018-09-08T02:28:01.759Z,11.15
2018-09-08T02:32:59.677Z,11.09
2018-09-08T02:37:57.642Z,10.85
2018-09-08T02:42:55.031Z,10.84
2018-09-08T02:47:52.439Z,10.72
2018-09-08T02:52:48.732Z,10.75
2018-09-08T02:57:45.051Z,10.74
2018-09-08T03:02:41.451Z,10.46
2018-09-08T03:07:37.795Z,10.44
2018-09-08T03:12:34.790Z,10.59
2018-09-08T03:17:31.095Z,10.42
2018-09-08T03:22:27.395Z,10.34
2018-09-08T03:27:23.684Z,10.29
2018-09-08T03:32:20.008Z,10.17
2018-09-08T03:37:16.330Z,10.25
2018-09-08T03:42:13.183Z,10.14
2018-09-08T03:47:09.547Z,10.05
2018-09-08T03:52:05.832Z,10.06
2018-09-08T03:57:02.151Z,10.09
2018-09-08T04:01:58.447Z,10.19
2018-09-08T04:06:55.841Z,10.40
2018-09-08T04:11:53.299Z,10.15
2018-09-08T04:16:50.711Z,9.62
2018-09-08T04:21:48.115Z,9.44
2018-09-08T04:26:45.611Z,9.37
2018-09-08T04:31:43.067Z,9.40
2018-09-08T04:36:40.481Z,9.33
2018-09-08T04:41:37.941Z,9.19
2018-09-08T04:46:35.331Z,9.14
2018-09-08T04:51:32.781Z,9.09
2018-09-08T04:56:30.239Z,9.09
2018-09-08T05:01:30.876Z,9.27
2018-09-08T05:06:28.452Z,9.33
2018-09-08T05:11:25.847Z,9.67
2018-09-08T05:16:23.244Z,11.10
2018-09-08T05:21:20.678Z,12.96
2018-09-08T05:26:18.088Z,12.98
2018-09-08T05:31:15.507Z,13.73
2018-09-08T05:36:12.970Z,15.11
2018-09-08T05:41:10.435Z,15.43
2018-09-08T05:46:07.951Z,17.42
2018-09-08T05:51:05.371Z,18.25
2018-09-08T05:56:02.789Z,17.96
2018-09-08T06:01:00.219Z,17.71
2018-09-08T06:05:57.627Z,18.36
2018-09-08T06:10:55.034Z,18.42
2018-09-08T06:15:52.443Z,17.97
2018-09-08T06:20:49.831Z,16.68
2018-09-08T06:25:47.236Z,15.94
2018-09-08T06:30:44.625Z,15.21
2018-09-08T06:35:43.068Z,15.19
2018-09-08T06:40:40.464Z,15.10
2018-09-08T06:45:37.906Z,14.91
2018-09-08T06:50:35.392Z,14.64
2018-09-08T06:55:32.847Z,14.76
2018-09-08T07:00:30.242Z,14.89
2018-09-08T07:05:27.664Z,14.76
2018-09-08T07:10:25.555Z,14.93
2018-09-08T07:15:22.975Z,14.42
2018-09-08T07:20:20.483Z,14.70
2018-09-08T07:25:17.941Z,14.62
2018-09-08T07:30:15.384Z,14.53
2018-09-08T07:35:13.107Z,14.47
2018-09-08T07:40:11.573Z,15.50
2018-09-08T07:45:08.971Z,15.43
2018-09-08T07:50:06.443Z,16.37
2018-09-08T07:55:03.934Z,16.36
2018-09-08T08:00:01.409Z,16.03
2018-09-08T08:04:58.879Z,16.78
2018-09-08T08:09:57.728Z,17.03
2018-09-08T08:14:55.173Z,17.45
2018-09-08T08:19:52.619Z,16.38
2018-09-08T08:24:50.045Z,16.77
2018-09-08T08:29:47.470Z,17.35
2018-09-08T08:34:44.900Z,18.08
2018-09-08T08:39:50.629Z,18.51
2018-09-08T08:44:48.082Z,18.40
2018-09-08T08:49:52.962Z,18.05
2018-09-08T08:54:54.646Z,18.07
2018-09-08T08:59:52.123Z,18.57
2018-09-08T09:04:49.531Z,18.45
2018-09-08T09:09:54.603Z,17.79
2018-09-08T09:14:52.643Z,18.56
2018-09-08T09:20:01.443Z,19.73
2018-09-08T09:25:08.317Z,18.31
2018-09-08T09:30:06.773Z,19.01
2018-09-08T09:35:04.447Z,19.69
2018-09-08T09:40:02.927Z,18.86
2018-09-08T09:45:00.356Z,17.48
2018-09-08T09:49:57.782Z,17.38
2018-09-08T09:54:56.009Z,18.25
2018-09-08T09:59:53.456Z,18.31
2018-09-08T10:04:50.882Z,18.80
2018-09-08T10:09:55.042Z,18.81
2018-09-08T10:14:52.460Z,18.55
2018-09-08T10:19:49.929Z,18.67
2018-09-08T10:24:47.364Z,18.68
2018-09-08T10:29:44.788Z,18.84
2018-09-08T10:34:43.153Z,19.63
2018-09-08T10:39:47.946Z,18.78
2018-09-08T10:44:46.902Z,18.28
2018-09-08T10:49:44.439Z,18.93
2018-09-08T10:54:41.879Z,19.57
2018-09-08T10:59:39.283Z,20.63
2018-09-08T11:04:36.711Z,19.95
2018-09-08T11:09:43.907Z,19.06
2018-09-08T11:14:41.373Z,19.25
2018-09-08T11:19:38.783Z,19.36
2018-09-08T11:24:36.191Z,19.47
2018-09-08T11:29:33.639Z,19.88
2018-09-08T11:34:31.323Z,18.93
2018-09-08T11:39:35.779Z,19.22
2018-09-08T11:44:35.378Z,19.04
2018-09-08T11:49:32.824Z,18.89
2018-09-08T11:54:30.219Z,18.93
2018-09-08T11:59:27.685Z,19.30
2018-09-08T12:04:25.083Z,19.86
2018-09-08T12:14:40.907Z,19.18
2018-09-08T12:19:38.325Z,19.35
2018-09-08T12:24:35.744Z,19.84
2018-09-08T12:29:33.160Z,19.43
2018-09-08T12:34:30.602Z,19.31
2018-09-08T12:39:37.156Z,19.02
2018-09-08T12:44:34.644Z,19.43
2018-09-08T12:49:32.099Z,19.33
2018-09-08T12:54:29.554Z,19.60
2018-09-08T12:59:27.234Z,19.15
2018-09-08T13:04:24.634Z,19.04
2018-09-08T13:09:33.116Z,19.63
2018-09-08T13:14:30.930Z,19.58
2018-09-08T13:19:28.330Z,19.75
2018-09-08T13:24:25.729Z,19.11
2018-09-08T13:29:23.381Z,19.11
2018-09-08T13:34:20.783Z,19.39
2018-09-08T13:39:31.527Z,20.09
2018-09-08T13:44:29.988Z,19.63
2018-09-08T13:49:27.620Z,19.78
2018-09-08T13:54:25.527Z,19.84
2018-09-08T13:59:22.978Z,20.17
2018-09-08T14:04:20.482Z,20.48
2018-09-08T14:09:23.540Z,20.66
2018-09-08T14:14:21.126Z,20.37
2018-09-08T14:19:18.534Z,20.36
2018-09-08T14:24:15.967Z,20.28
2018-09-08T14:29:13.423Z,20.39
2018-09-08T14:34:10.920Z,20.98
2018-09-08T14:39:11.959Z,19.86
2018-09-08T14:44:09.399Z,19.67
2018-09-08T14:49:06.811Z,19.77
2018-09-08T14:54:04.304Z,20.05
2018-09-08T14:59:01.779Z,20.09
2018-09-08T15:03:59.189Z,20.32
2018-09-08T15:08:57.419Z,19.62
2018-09-08T15:13:54.854Z,19.60
2018-09-08T15:18:52.283Z,19.38
2018-09-08T15:23:51.353Z,19.42
2018-09-08T15:28:48.776Z,19.42
2018-09-08T15:33:46.191Z,19.63
2018-09-08T15:38:43.587Z,19.69
2018-09-08T15:43:41.025Z,19.59
2018-09-08T15:48:38.464Z,19.49
2018-09-08T15:53:35.900Z,19.08
2018-09-08T15:58:33.434Z,19.08
2018-09-08T16:03:30.731Z,19.12
2018-09-08T16:08:28.194Z,19.14
2018-09-08T16:13:25.614Z,19.15
2018-09-08T16:18:23.039Z,19.10
2018-09-08T16:23:20.475Z,18.96
2018-09-08T16:28:17.893Z,19.03
2018-09-08T16:33:15.283Z,19.12
2018-09-08T16:38:12.679Z,18.95
2018-09-08T16:43:10.094Z,18.97
2018-09-08T16:48:07.522Z,19.07
2018-09-08T16:53:05.564Z,18.99
2018-09-08T16:58:03.125Z,18.92
2018-09-08T17:03:01.426Z,18.88
2018-09-08T17:07:58.885Z,18.91
2018-09-08T17:12:56.310Z,18.73
2018-09-08T17:17:53.820Z,18.73
2018-09-08T17:22:51.335Z,18.74
2018-09-08T17:27:48.739Z,18.62
2018-09-08T17:32:46.150Z,18.53
2018-09-08T17:37:43.550Z,18.50
2018-09-08T17:42:40.971Z,18.48
2018-09-08T17:47:38.391Z,18.48
2018-09-08T17:52:35.871Z,18.36
2018-09-08T17:57:33.449Z,18.31
2018-09-08T18:02:30.863Z,18.08
2018-09-08T18:07:28.271Z,17.90
2018-09-08T18:12:25.716Z,17.87
2018-09-08T18:17:23.199Z,18.14
2018-09-08T18:22:21.299Z,18.10
2018-09-08T18:27:18.776Z,17.81
2018-09-08T18:32:16.237Z,17.47
2018-09-08T18:37:13.822Z,17.82
2018-09-08T18:42:11.479Z,17.52
2018-09-08T18:47:08.921Z,17.32
2018-09-08T18:52:06.432Z,17.15
2018-09-08T18:57:03.908Z,16.90
2018-09-08T19:02:01.321Z,16.63
2018-09-08T19:06:58.742Z,16.51
2018-09-08T19:11:56.178Z,16.49
2018-09-08T19:16:53.599Z,16.41
2018-09-08T19:21:51.237Z,16.30
2018-09-08T19:26:48.665Z,16.70
2018-09-08T19:31:46.134Z,16.31
2018-09-08T19:36:43.774Z,16.05
2018-09-08T19:41:41.221Z,15.88
2018-09-08T19:46:44.155Z,15.82
2018-09-08T19:51:41.564Z,15.83
2018-09-08T19:56:45.199Z,15.74
2018-09-08T20:01:42.602Z,15.59
2018-09-08T20:06:40.006Z,15.50
2018-09-08T20:11:37.436Z,15.42
2018-09-08T20:16:35.852Z,15.30
2018-09-08T20:21:33.255Z,15.22
2018-09-08T20:26:30.719Z,15.21
2018-09-08T20:31:28.074Z,15.27
2018-09-08T20:36:25.491Z,15.34
2018-09-08T20:41:22.864Z,15.20
2018-09-08T20:46:21.115Z,15.11
2018-09-08T20:51:18.521Z,15.09
2018-09-08T20:56:15.910Z,14.92
2018-09-08T21:01:13.327Z,14.83
2018-09-08T21:06:10.738Z,14.73
2018-09-08T21:11:08.115Z,14.64
2018-09-08T21:16:05.542Z,14.59
2018-09-08T21:21:02.924Z,14.56
2018-09-08T21:26:00.578Z,14.64
2018-09-08T21:30:57.948Z,14.67
2018-09-08T21:35:55.582Z,14.85
2018-09-08T21:40:52.994Z,14.85
2018-09-08T21:45:50.387Z,15.03
2018-09-08T21:50:47.771Z,14.90
2018-09-08T21:55:45.171Z,14.66
2018-09-08T22:00:47.204Z,14.74
2018-09-08T22:05:44.596Z,15.12
2018-09-08T22:10:42.033Z,14.73
2018-09-08T22:15:39.432Z,14.68
2018-09-08T22:20:36.847Z,15.18
2018-09-08T22:25:34.235Z,15.02
2018-09-08T22:30:31.619Z,14.93
2018-09-08T22:35:29.004Z,14.67
2018-09-08T22:40:26.513Z,14.48
2018-09-08T22:45:23.919Z,14.89
2018-09-08T22:50:21.344Z,14.40
2018-09-08T22:55:18.822Z,14.28
2018-09-08T23:00:16.675Z,14.93
2018-09-08T23:05:14.191Z,14.49
2018-09-08T23:10:12.725Z,14.83
2018-09-08T23:15:10.179Z,14.52
2018-09-08T23:20:07.611Z,14.33
2018-09-08T23:25:05.022Z,14.29
2018-09-08T23:30:02.495Z,14.27
2018-09-08T23:34:59.938Z,14.31
2018-09-08T23:39:58.681Z,14.75
2018-09-08T23:44:56.072Z,14.46
2018-09-08T23:49:53.579Z,14.13
2018-09-08T23:54:50.975Z,14.31
2018-09-08T23:59:48.799Z,13.99
